sensor_id;sensor_type;location;lat;lon;timestamp;P1;durP1;ratioP1;P2;durP2;ratioP2
23179;SDS011;11758;45.756;11.432;2023-04-24T00:01:16;25.77;;;17.77;;
23179;SDS011;11758;45.756;11.432;2023-04-24T00:03:44;26.05;;;17.92;;
23179;SDS011;11758;45.756;11.432;2023-04-24T00:06:10;27.05;;;18.45;;
23179;SDS011;11758;45.756;11.432;2023-04-24T00:08:36;25.35;;;19.88;;
23179;SDS011;11758;45.756;11.432;2023-04-24T00:11:02;31.27;;;23.25;;
23179;SDS011;11758;45.756;11.432;2023-04-24T00:13:28;29.92;;;21.15;;
23179;SDS011;11758;45.756;11.432;2023-04-24T00:15:55;39.78;;;25.60;;
23179;SDS011;11758;45.756;11.432;2023-04-24T00:18:21;35.08;;;23.55;;
23179;SDS011;11758;45.756;11.432;2023-04-24T00:20:47;32.70;;;23.58;;
23179;SDS011;11758;45.756;11.432;2023-04-24T00:23:13;33.72;;;24.10;;
23179;SDS011;11758;45.756;11.432;2023-04-24T00:25:39;34.75;;;24.20;;
23179;SDS011;11758;45.756;11.432;2023-04-24T00:28:06;41.28;;;25.77;;
23179;SDS011;11758;45.756;11.432;2023-04-24T00:30:32;37.50;;;25.23;;
23179;SDS011;11758;45.756;11.432;2023-04-24T00:32:58;37.45;;;25.73;;
23179;SDS011;11758;45.756;11.432;2023-04-24T00:35:24;38.75;;;26.33;;
23179;SDS011;11758;45.756;11.432;2023-04-24T00:37:50;36.78;;;25.58;;
23179;SDS011;11758;45.756;11.432;2023-04-24T00:40:16;36.60;;;25.80;;
23179;SDS011;11758;45.756;11.432;2023-04-24T00:42:43;38.17;;;26.35;;
23179;SDS011;11758;45.756;11.432;2023-04-24T00:45:09;41.75;;;27.48;;
23179;SDS011;11758;45.756;11.432;2023-04-24T00:47:36;41.10;;;28.23;;
23179;SDS011;11758;45.756;11.432;2023-04-24T00:50:03;47.45;;;29.13;;
23179;SDS011;11758;45.756;11.432;2023-04-24T00:52:29;47.70;;;29.15;;
23179;SDS011;11758;45.756;11.432;2023-04-24T00:54:57;50.25;;;29.60;;
23179;SDS011;11758;45.756;11.432;2023-04-24T00:57:23;42.08;;;29.40;;
23179;SDS011;11758;45.756;11.432;2023-04-24T00:59:50;41.28;;;28.27;;
23179;SDS011;11758;45.756;11.432;2023-04-24T01:02:16;41.53;;;28.92;;
23179;SDS011;11758;45.756;11.432;2023-04-24T01:04:42;40.60;;;28.42;;
23179;SDS011;11758;45.756;11.432;2023-04-24T01:07:08;41.70;;;28.08;;
23179;SDS011;11758;45.756;11.432;2023-04-24T01:09:39;39.53;;;28.02;;
23179;SDS011;11758;45.756;11.432;2023-04-24T01:12:09;40.22;;;27.58;;
23179;SDS011;11758;45.756;11.432;2023-04-24T01:14:35;40.50;;;28.00;;
23179;SDS011;11758;45.756;11.432;2023-04-24T01:17:02;38.72;;;27.02;;
23179;SDS011;11758;45.756;11.432;2023-04-24T01:19:28;40.30;;;27.23;;
23179;SDS011;11758;45.756;11.432;2023-04-24T01:21:54;42.92;;;28.27;;
23179;SDS011;11758;45.756;11.432;2023-04-24T01:24:23;39.50;;;26.95;;
23179;SDS011;11758;45.756;11.432;2023-04-24T01:26:49;43.97;;;28.02;;
23179;SDS011;11758;45.756;11.432;2023-04-24T01:29:15;42.95;;;27.85;;
23179;SDS011;11758;45.756;11.432;2023-04-24T01:31:41;41.92;;;28.65;;
23179;SDS011;11758;45.756;11.432;2023-04-24T01:34:08;43.83;;;29.30;;
23179;SDS011;11758;45.756;11.432;2023-04-24T01:36:34;44.30;;;29.50;;
23179;SDS011;11758;45.756;11.432;2023-04-24T01:39:01;42.50;;;27.95;;
23179;SDS011;11758;45.756;11.432;2023-04-24T01:41:28;40.40;;;27.70;;
23179;SDS011;11758;45.756;11.432;2023-04-24T01:43:55;38.47;;;26.55;;
23179;SDS011;11758;45.756;11.432;2023-04-24T01:46:23;43.15;;;25.70;;
23179;SDS011;11758;45.756;11.432;2023-04-24T01:48:49;32.83;;;22.90;;
23179;SDS011;11758;45.756;11.432;2023-04-24T01:51:16;40.40;;;23.65;;
23179;SDS011;11758;45.756;11.432;2023-04-24T01:53:43;32.05;;;22.90;;
23179;SDS011;11758;45.756;11.432;2023-04-24T01:56:09;32.03;;;22.42;;
23179;SDS011;11758;45.756;11.432;2023-04-24T01:58:35;27.55;;;20.20;;
23179;SDS011;11758;45.756;11.432;2023-04-24T02:01:02;28.77;;;20.20;;
23179;SDS011;11758;45.756;11.432;2023-04-24T02:03:28;33.15;;;21.25;;
23179;SDS011;11758;45.756;11.432;2023-04-24T02:05:54;27.88;;;20.35;;
23179;SDS011;11758;45.756;11.432;2023-04-24T02:08:20;31.30;;;19.70;;
23179;SDS011;11758;45.756;11.432;2023-04-24T02:10:46;25.85;;;19.77;;
23179;SDS011;11758;45.756;11.432;2023-04-24T02:13:12;28.15;;;18.75;;
23179;SDS011;11758;45.756;11.432;2023-04-24T02:15:38;23.13;;;16.20;;
23179;SDS011;11758;45.756;11.432;2023-04-24T02:18:04;23.85;;;15.80;;
23179;SDS011;11758;45.756;11.432;2023-04-24T02:20:32;21.98;;;16.52;;
23179;SDS011;11758;45.756;11.432;2023-04-24T02:23:00;26.67;;;16.63;;
23179;SDS011;11758;45.756;11.432;2023-04-24T02:25:26;24.33;;;16.45;;
23179;SDS011;11758;45.756;11.432;2023-04-24T02:27:52;21.67;;;16.05;;
23179;SDS011;11758;45.756;11.432;2023-04-24T02:30:18;24.35;;;16.30;;
23179;SDS011;11758;45.756;11.432;2023-04-24T02:32:45;18.95;;;14.93;;
23179;SDS011;11758;45.756;11.432;2023-04-24T02:35:11;20.45;;;13.32;;
23179;SDS011;11758;45.756;11.432;2023-04-24T02:37:37;17.05;;;12.35;;
23179;SDS011;11758;45.756;11.432;2023-04-24T02:40:03;13.13;;;10.82;;
23179;SDS011;11758;45.756;11.432;2023-04-24T02:42:30;14.23;;;10.93;;
23179;SDS011;11758;45.756;11.432;2023-04-24T02:44:56;14.32;;;9.95;;
23179;SDS011;11758;45.756;11.432;2023-04-24T02:47:23;17.38;;;9.25;;
23179;SDS011;11758;45.756;11.432;2023-04-24T02:49:49;14.38;;;10.18;;
23179;SDS011;11758;45.756;11.432;2023-04-24T02:52:15;13.70;;;9.30;;
23179;SDS011;11758;45.756;11.432;2023-04-24T02:54:42;10.30;;;8.98;;
23179;SDS011;11758;45.756;11.432;2023-04-24T02:57:08;12.73;;;8.35;;
23179;SDS011;11758;45.756;11.432;2023-04-24T02:59:34;11.68;;;8.25;;
23179;SDS011;11758;45.756;11.432;2023-04-24T03:02:00;15.45;;;9.52;;
23179;SDS011;11758;45.756;11.432;2023-04-24T03:04:26;12.18;;;9.98;;
23179;SDS011;11758;45.756;11.432;2023-04-24T03:06:53;12.48;;;9.57;;
23179;SDS011;11758;45.756;11.432;2023-04-24T03:09:22;15.13;;;9.73;;
23179;SDS011;11758;45.756;11.432;2023-04-24T03:11:48;15.73;;;8.68;;
23179;SDS011;11758;45.756;11.432;2023-04-24T03:14:15;11.60;;;8.57;;
23179;SDS011;11758;45.756;11.432;2023-04-24T03:16:41;12.02;;;8.93;;
23179;SDS011;11758;45.756;11.432;2023-04-24T03:19:07;12.40;;;9.30;;
23179;SDS011;11758;45.756;11.432;2023-04-24T03:21:33;12.73;;;9.18;;
23179;SDS011;11758;45.756;11.432;2023-04-24T03:24:00;14.73;;;8.55;;
23179;SDS011;11758;45.756;11.432;2023-04-24T03:26:27;11.50;;;9.00;;
23179;SDS011;11758;45.756;11.432;2023-04-24T03:28:53;13.65;;;9.25;;
23179;SDS011;11758;45.756;11.432;2023-04-24T03:31:19;12.95;;;8.90;;
23179;SDS011;11758;45.756;11.432;2023-04-24T03:33:46;14.40;;;9.00;;
23179;SDS011;11758;45.756;11.432;2023-04-24T03:36:12;15.43;;;8.75;;
23179;SDS011;11758;45.756;11.432;2023-04-24T03:38:38;16.17;;;10.48;;
23179;SDS011;11758;45.756;11.432;2023-04-24T03:41:04;12.25;;;9.15;;
23179;SDS011;11758;45.756;11.432;2023-04-24T03:43:30;10.63;;;9.35;;
23179;SDS011;11758;45.756;11.432;2023-04-24T03:45:58;14.80;;;8.60;;
23179;SDS011;11758;45.756;11.432;2023-04-24T03:48:24;12.75;;;9.55;;
23179;SDS011;11758;45.756;11.432;2023-04-24T03:50:50;15.60;;;9.50;;
23179;SDS011;11758;45.756;11.432;2023-04-24T03:53:17;14.85;;;9.93;;
23179;SDS011;11758;45.756;11.432;2023-04-24T03:55:44;18.73;;;11.35;;
23179;SDS011;11758;45.756;11.432;2023-04-24T03:58:10;19.40;;;11.85;;
23179;SDS011;11758;45.756;11.432;2023-04-24T04:00:38;17.60;;;12.05;;
23179;SDS011;11758;45.756;11.432;2023-04-24T04:03:05;14.60;;;10.30;;
23179;SDS011;11758;45.756;11.432;2023-04-24T04:05:31;15.45;;;9.93;;
23179;SDS011;11758;45.756;11.432;2023-04-24T04:07:57;20.88;;;10.88;;
23179;SDS011;11758;45.756;11.432;2023-04-24T04:10:23;19.45;;;11.32;;
23179;SDS011;11758;45.756;11.432;2023-04-24T04:12:50;15.07;;;10.13;;
23179;SDS011;11758;45.756;11.432;2023-04-24T04:15:16;13.20;;;10.20;;
23179;SDS011;11758;45.756;11.432;2023-04-24T04:17:42;11.77;;;9.55;;
23179;SDS011;11758;45.756;11.432;2023-04-24T04:20:08;15.40;;;10.43;;
23179;SDS011;11758;45.756;11.432;2023-04-24T04:22:36;12.30;;;9.52;;
23179;SDS011;11758;45.756;11.432;2023-04-24T04:25:02;12.38;;;9.82;;
23179;SDS011;11758;45.756;11.432;2023-04-24T04:27:29;12.93;;;9.13;;
23179;SDS011;11758;45.756;11.432;2023-04-24T04:30:00;13.07;;;9.82;;
23179;SDS011;11758;45.756;11.432;2023-04-24T04:32:32;11.10;;;9.85;;
23179;SDS011;11758;45.756;11.432;2023-04-24T04:34:58;15.02;;;10.77;;
23179;SDS011;11758;45.756;11.432;2023-04-24T04:37:28;14.80;;;10.60;;
23179;SDS011;11758;45.756;11.432;2023-04-24T04:39:55;17.30;;;11.18;;
23179;SDS011;11758;45.756;11.432;2023-04-24T04:42:21;14.38;;;11.07;;
23179;SDS011;11758;45.756;11.432;2023-04-24T04:44:48;16.58;;;10.65;;
23179;SDS011;11758;45.756;11.432;2023-04-24T04:47:15;16.58;;;11.40;;
23179;SDS011;11758;45.756;11.432;2023-04-24T04:49:42;14.18;;;10.63;;
23179;SDS011;11758;45.756;11.432;2023-04-24T04:52:08;16.77;;;10.80;;
23179;SDS011;11758;45.756;11.432;2023-04-24T04:54:35;14.77;;;10.93;;
23179;SDS011;11758;45.756;11.432;2023-04-24T04:57:01;19.65;;;11.90;;
23179;SDS011;11758;45.756;11.432;2023-04-24T04:59:27;12.98;;;11.05;;
23179;SDS011;11758;45.756;11.432;2023-04-24T05:01:53;15.88;;;10.88;;
23179;SDS011;11758;45.756;11.432;2023-04-24T05:04:19;12.43;;;10.75;;
23179;SDS011;11758;45.756;11.432;2023-04-24T05:06:45;12.23;;;10.45;;
23179;SDS011;11758;45.756;11.432;2023-04-24T05:09:12;12.27;;;9.77;;
23179;SDS011;11758;45.756;11.432;2023-04-24T05:11:38;16.35;;;10.70;;
23179;SDS011;11758;45.756;11.432;2023-04-24T05:14:04;13.13;;;10.63;;
23179;SDS011;11758;45.756;11.432;2023-04-24T05:16:30;14.43;;;9.35;;
23179;SDS011;11758;45.756;11.432;2023-04-24T05:18:56;12.32;;;10.23;;
23179;SDS011;11758;45.756;11.432;2023-04-24T05:21:23;13.32;;;10.82;;
23179;SDS011;11758;45.756;11.432;2023-04-24T05:23:49;17.85;;;11.77;;
23179;SDS011;11758;45.756;11.432;2023-04-24T05:26:15;14.85;;;12.73;;
23179;SDS011;11758;45.756;11.432;2023-04-24T05:28:41;14.13;;;11.00;;
23179;SDS011;11758;45.756;11.432;2023-04-24T05:31:07;13.00;;;10.73;;
23179;SDS011;11758;45.756;11.432;2023-04-24T05:33:33;13.30;;;10.45;;
23179;SDS011;11758;45.756;11.432;2023-04-24T05:35:59;15.55;;;9.25;;
23179;SDS011;11758;45.756;11.432;2023-04-24T05:38:25;9.52;;;8.57;;
23179;SDS011;11758;45.756;11.432;2023-04-24T05:40:51;10.70;;;9.07;;
23179;SDS011;11758;45.756;11.432;2023-04-24T05:43:17;18.55;;;9.20;;
23179;SDS011;11758;45.756;11.432;2023-04-24T05:45:44;10.23;;;9.10;;
23179;SDS011;11758;45.756;11.432;2023-04-24T05:48:10;14.43;;;8.80;;
23179;SDS011;11758;45.756;11.432;2023-04-24T05:50:36;13.32;;;9.50;;
23179;SDS011;11758;45.756;11.432;2023-04-24T05:53:02;13.23;;;9.57;;
23179;SDS011;11758;45.756;11.432;2023-04-24T05:55:30;11.02;;;9.10;;
23179;SDS011;11758;45.756;11.432;2023-04-24T05:57:56;11.23;;;8.95;;
23179;SDS011;11758;45.756;11.432;2023-04-24T06:00:23;11.38;;;8.95;;
23179;SDS011;11758;45.756;11.432;2023-04-24T06:02:49;9.70;;;7.88;;
23179;SDS011;11758;45.756;11.432;2023-04-24T06:05:16;5.80;;;5.22;;
23179;SDS011;11758;45.756;11.432;2023-04-24T06:07:42;4.57;;;3.80;;
23179;SDS011;11758;45.756;11.432;2023-04-24T06:10:09;3.65;;;2.58;;
23179;SDS011;11758;45.756;11.432;2023-04-24T06:12:35;3.20;;;3.03;;
23179;SDS011;11758;45.756;11.432;2023-04-24T06:15:02;1.02;;;1.02;;
23179;SDS011;11758;45.756;11.432;2023-04-24T06:17:28;2.58;;;1.20;;
23179;SDS011;11758;45.756;11.432;2023-04-24T06:19:54;2.47;;;1.13;;
23179;SDS011;11758;45.756;11.432;2023-04-24T06:22:20;1.20;;;1.08;;
23179;SDS011;11758;45.756;11.432;2023-04-24T06:24:47;3.63;;;0.70;;
23179;SDS011;11758;45.756;11.432;2023-04-24T06:27:13;1.15;;;0.90;;
23179;SDS011;11758;45.756;11.432;2023-04-24T06:29:40;0.35;;;0.35;;
23179;SDS011;11758;45.756;11.432;2023-04-24T06:32:06;1.60;;;0.47;;
23179;SDS011;11758;45.756;11.432;2023-04-24T06:34:32;0.50;;;0.50;;
23179;SDS011;11758;45.756;11.432;2023-04-24T06:36:59;1.55;;;0.20;;
23179;SDS011;11758;45.756;11.432;2023-04-24T06:39:26;2.83;;;0.50;;
23179;SDS011;11758;45.756;11.432;2023-04-24T06:41:52;3.13;;;0.32;;
23179;SDS011;11758;45.756;11.432;2023-04-24T06:44:18;2.40;;;0.30;;
23179;SDS011;11758;45.756;11.432;2023-04-24T06:46:44;0.25;;;0.25;;
23179;SDS011;11758;45.756;11.432;2023-04-24T06:49:10;4.18;;;0.30;;
23179;SDS011;11758;45.756;11.432;2023-04-24T06:51:36;0.73;;;0.25;;
23179;SDS011;11758;45.756;11.432;2023-04-24T06:54:02;0.30;;;0.30;;
23179;SDS011;11758;45.756;11.432;2023-04-24T06:56:28;0.28;;;0.25;;
23179;SDS011;11758;45.756;11.432;2023-04-24T06:58:55;1.88;;;0.20;;
23179;SDS011;11758;45.756;11.432;2023-04-24T07:01:21;0.10;;;0.10;;
23179;SDS011;11758;45.756;11.432;2023-04-24T07:03:47;0.10;;;0.10;;
23179;SDS011;11758;45.756;11.432;2023-04-24T07:06:14;0.50;;;0.50;;
23179;SDS011;11758;45.756;11.432;2023-04-24T07:12:16;0.25;;;0.25;;
23179;SDS011;11758;45.756;11.432;2023-04-24T07:15:00;0.10;;;0.10;;
23179;SDS011;11758;45.756;11.432;2023-04-24T07:17:26;3.50;;;0.20;;
23179;SDS011;11758;45.756;11.432;2023-04-24T07:19:52;1.48;;;0.40;;
23179;SDS011;11758;45.756;11.432;2023-04-24T07:22:18;0.40;;;0.40;;
23179;SDS011;11758;45.756;11.432;2023-04-24T07:24:44;0.20;;;0.20;;
23179;SDS011;11758;45.756;11.432;2023-04-24T07:27:11;0.22;;;0.22;;
23179;SDS011;11758;45.756;11.432;2023-04-24T07:29:37;0.47;;;0.40;;
23179;SDS011;11758;45.756;11.432;2023-04-24T07:32:03;0.60;;;0.60;;
23179;SDS011;11758;45.756;11.432;2023-04-24T07:34:29;0.20;;;0.20;;
23179;SDS011;11758;45.756;11.432;2023-04-24T07:36:55;17.08;;;0.32;;
23179;SDS011;11758;45.756;11.432;2023-04-24T07:39:22;0.30;;;0.30;;
23179;SDS011;11758;45.756;11.432;2023-04-24T07:41:48;0.50;;;0.47;;
23179;SDS011;11758;45.756;11.432;2023-04-24T07:44:14;0.85;;;0.85;;
23179;SDS011;11758;45.756;11.432;2023-04-24T07:46:40;0.80;;;0.80;;
23179;SDS011;11758;45.756;11.432;2023-04-24T07:49:06;1.45;;;1.00;;
23179;SDS011;11758;45.756;11.432;2023-04-24T07:51:32;0.35;;;0.35;;
23179;SDS011;11758;45.756;11.432;2023-04-24T07:54:03;0.38;;;0.38;;
23179;SDS011;11758;45.756;11.432;2023-04-24T07:56:31;0.40;;;0.40;;
23179;SDS011;11758;45.756;11.432;2023-04-24T07:58:57;0.25;;;0.25;;
23179;SDS011;11758;45.756;11.432;2023-04-24T08:01:23;1.25;;;0.50;;
23179;SDS011;11758;45.756;11.432;2023-04-24T08:03:50;0.40;;;0.40;;
23179;SDS011;11758;45.756;11.432;2023-04-24T08:06:16;0.50;;;0.50;;
23179;SDS011;11758;45.756;11.432;2023-04-24T08:08:42;1.00;;;1.00;;
23179;SDS011;11758;45.756;11.432;2023-04-24T08:11:08;1.80;;;0.40;;
23179;SDS011;11758;45.756;11.432;2023-04-24T08:13:34;0.10;;;0.10;;
23179;SDS011;11758;45.756;11.432;2023-04-24T08:16:00;0.13;;;0.13;;
23179;SDS011;11758;45.756;11.432;2023-04-24T08:18:27;0.88;;;0.88;;
23179;SDS011;11758;45.756;11.432;2023-04-24T08:20:53;1.35;;;0.70;;
23179;SDS011;11758;45.756;11.432;2023-04-24T08:23:19;0.50;;;0.50;;
23179;SDS011;11758;45.756;11.432;2023-04-24T08:25:47;0.40;;;0.40;;
23179;SDS011;11758;45.756;11.432;2023-04-24T08:28:13;0.68;;;0.68;;
23179;SDS011;11758;45.756;11.432;2023-04-24T08:30:45;1.17;;;1.10;;
23179;SDS011;11758;45.756;11.432;2023-04-24T08:33:12;1.85;;;1.75;;
23179;SDS011;11758;45.756;11.432;2023-04-24T08:35:38;1.30;;;1.30;;
23179;SDS011;11758;45.756;11.432;2023-04-24T08:38:04;1.35;;;1.35;;
23179;SDS011;11758;45.756;11.432;2023-04-24T08:40:31;2.60;;;1.20;;
23179;SDS011;11758;45.756;11.432;2023-04-24T08:43:00;1.00;;;1.00;;
23179;SDS011;11758;45.756;11.432;2023-04-24T08:45:26;1.27;;;0.80;;
23179;SDS011;11758;45.756;11.432;2023-04-24T08:47:53;1.20;;;1.20;;
23179;SDS011;11758;45.756;11.432;2023-04-24T08:50:20;0.80;;;0.80;;
23179;SDS011;11758;45.756;11.432;2023-04-24T08:52:48;1.88;;;1.40;;
23179;SDS011;11758;45.756;11.432;2023-04-24T08:55:15;1.70;;;1.60;;
23179;SDS011;11758;45.756;11.432;2023-04-24T08:57:44;1.90;;;1.80;;
23179;SDS011;11758;45.756;11.432;2023-04-24T09:00:11;12.55;;;6.38;;
23179;SDS011;11758;45.756;11.432;2023-04-24T09:02:39;1.95;;;1.00;;
23179;SDS011;11758;45.756;11.432;2023-04-24T09:05:08;3.03;;;2.80;;
23179;SDS011;11758;45.756;11.432;2023-04-24T09:07:35;1.60;;;1.50;;
23179;SDS011;11758;45.756;11.432;2023-04-24T09:10:02;3.65;;;1.30;;
23179;SDS011;11758;45.756;11.432;2023-04-24T09:12:28;1.08;;;1.08;;
23179;SDS011;11758;45.756;11.432;2023-04-24T09:14:54;0.80;;;0.80;;
23179;SDS011;11758;45.756;11.432;2023-04-24T09:17:20;1.40;;;1.40;;
23179;SDS011;11758;45.756;11.432;2023-04-24T09:19:48;0.90;;;0.70;;
23179;SDS011;11758;45.756;11.432;2023-04-24T09:22:14;0.65;;;0.60;;
23179;SDS011;11758;45.756;11.432;2023-04-24T09:24:40;0.47;;;0.47;;
23179;SDS011;11758;45.756;11.432;2023-04-24T09:27:07;0.43;;;0.43;;
23179;SDS011;11758;45.756;11.432;2023-04-24T09:29:33;2.38;;;0.63;;
23179;SDS011;11758;45.756;11.432;2023-04-24T09:31:59;0.68;;;0.68;;
23179;SDS011;11758;45.756;11.432;2023-04-24T09:34:43;0.90;;;0.90;;
23179;SDS011;11758;45.756;11.432;2023-04-24T09:37:18;1.20;;;1.20;;
23179;SDS011;11758;45.756;11.432;2023-04-24T09:40:12;2.75;;;1.73;;
23179;SDS011;11758;45.756;11.432;2023-04-24T09:42:38;2.88;;;2.60;;
23179;SDS011;11758;45.756;11.432;2023-04-24T09:45:13;1.10;;;1.10;;
23179;SDS011;11758;45.756;11.432;2023-04-24T09:47:40;1.30;;;1.30;;
23179;SDS011;11758;45.756;11.432;2023-04-24T09:50:09;1.30;;;1.30;;
23179;SDS011;11758;45.756;11.432;2023-04-24T09:52:39;1.20;;;1.20;;
23179;SDS011;11758;45.756;11.432;2023-04-24T09:55:10;1.45;;;1.45;;
23179;SDS011;11758;45.756;11.432;2023-04-24T09:57:47;1.23;;;1.23;;
23179;SDS011;11758;45.756;11.432;2023-04-24T10:00:18;1.05;;;1.02;;
23179;SDS011;11758;45.756;11.432;2023-04-24T10:02:49;2.28;;;1.00;;
23179;SDS011;11758;45.756;11.432;2023-04-24T10:05:16;0.93;;;0.90;;
23179;SDS011;11758;45.756;11.432;2023-04-24T10:07:43;1.17;;;0.95;;
23179;SDS011;11758;45.756;11.432;2023-04-24T10:10:10;0.80;;;0.80;;
23179;SDS011;11758;45.756;11.432;2023-04-24T10:12:36;1.40;;;1.40;;
23179;SDS011;11758;45.756;11.432;2023-04-24T10:15:02;1.20;;;1.20;;
23179;SDS011;11758;45.756;11.432;2023-04-24T10:17:30;1.10;;;1.10;;
23179;SDS011;11758;45.756;11.432;2023-04-24T10:19:57;1.33;;;1.23;;
23179;SDS011;11758;45.756;11.432;2023-04-24T10:22:23;2.70;;;0.90;;
23179;SDS011;11758;45.756;11.432;2023-04-24T10:24:50;1.77;;;1.67;;
23179;SDS011;11758;45.756;11.432;2023-04-24T10:27:17;1.88;;;1.60;;
23179;SDS011;11758;45.756;11.432;2023-04-24T10:29:43;1.40;;;1.40;;
23179;SDS011;11758;45.756;11.432;2023-04-24T10:32:11;1.13;;;1.13;;
23179;SDS011;11758;45.756;11.432;2023-04-24T10:34:37;3.72;;;1.33;;
23179;SDS011;11758;45.756;11.432;2023-04-24T10:37:03;1.40;;;1.10;;
23179;SDS011;11758;45.756;11.432;2023-04-24T10:39:30;1.00;;;1.00;;
23179;SDS011;11758;45.756;11.432;2023-04-24T10:41:58;1.90;;;1.90;;
23179;SDS011;11758;45.756;11.432;2023-04-24T10:44:24;1.40;;;1.40;;
23179;SDS011;11758;45.756;11.432;2023-04-24T10:46:54;1.10;;;1.10;;
23179;SDS011;11758;45.756;11.432;2023-04-24T10:49:28;1.55;;;1.45;;
23179;SDS011;11758;45.756;11.432;2023-04-24T10:51:54;1.60;;;1.50;;
23179;SDS011;11758;45.756;11.432;2023-04-24T10:56:52;1.50;;;1.42;;
23179;SDS011;11758;45.756;11.432;2023-04-24T10:59:25;1.38;;;1.30;;
23179;SDS011;11758;45.756;11.432;2023-04-24T11:01:52;1.20;;;1.20;;
23179;SDS011;11758;45.756;11.432;2023-04-24T11:04:29;1.50;;;1.42;;
23179;SDS011;11758;45.756;11.432;2023-04-24T11:06:56;1.23;;;1.23;;
23179;SDS011;11758;45.756;11.432;2023-04-24T11:09:22;1.42;;;1.42;;
23179;SDS011;11758;45.756;11.432;2023-04-24T11:12:02;2.15;;;1.50;;
23179;SDS011;11758;45.756;11.432;2023-04-24T11:14:29;1.60;;;1.60;;
23179;SDS011;11758;45.756;11.432;2023-04-24T11:16:55;1.83;;;1.80;;
23179;SDS011;11758;45.756;11.432;2023-04-24T11:19:22;2.85;;;2.00;;
23179;SDS011;11758;45.756;11.432;2023-04-24T11:24:27;2.45;;;2.28;;
23179;SDS011;11758;45.756;11.432;2023-04-24T11:26:55;5.05;;;2.25;;
23179;SDS011;11758;45.756;11.432;2023-04-24T11:29:22;2.67;;;2.58;;
23179;SDS011;11758;45.756;11.432;2023-04-24T11:31:48;2.40;;;2.30;;
23179;SDS011;11758;45.756;11.432;2023-04-24T11:34:18;2.33;;;2.20;;
23179;SDS011;11758;45.756;11.432;2023-04-24T11:36:45;1.90;;;1.80;;
23179;SDS011;11758;45.756;11.432;2023-04-24T11:39:12;3.67;;;2.30;;
23179;SDS011;11758;45.756;11.432;2023-04-24T11:41:39;2.13;;;2.00;;
23179;SDS011;11758;45.756;11.432;2023-04-24T11:44:06;2.47;;;2.28;;
23179;SDS011;11758;45.756;11.432;2023-04-24T11:46:33;2.55;;;2.45;;
23179;SDS011;11758;45.756;11.432;2023-04-24T11:48:59;2.50;;;2.40;;
23179;SDS011;11758;45.756;11.432;2023-04-24T11:51:26;2.90;;;2.50;;
23179;SDS011;11758;45.756;11.432;2023-04-24T11:53:52;4.50;;;2.22;;
23179;SDS011;11758;45.756;11.432;2023-04-24T11:56:19;2.35;;;2.17;;
23179;SDS011;11758;45.756;11.432;2023-04-24T11:58:47;2.50;;;1.95;;
23179;SDS011;11758;45.756;11.432;2023-04-24T12:01:13;1.73;;;1.73;;
23179;SDS011;11758;45.756;11.432;2023-04-24T12:03:40;2.90;;;2.80;;
23179;SDS011;11758;45.756;11.432;2023-04-24T12:06:11;2.40;;;2.30;;
23179;SDS011;11758;45.756;11.432;2023-04-24T12:08:38;2.40;;;2.30;;
23179;SDS011;11758;45.756;11.432;2023-04-24T12:11:05;2.65;;;2.40;;
23179;SDS011;11758;45.756;11.432;2023-04-24T12:13:34;3.08;;;2.45;;
23179;SDS011;11758;45.756;11.432;2023-04-24T12:16:02;3.40;;;2.50;;
23179;SDS011;11758;45.756;11.432;2023-04-24T12:18:30;2.67;;;2.60;;
23179;SDS011;11758;45.756;11.432;2023-04-24T12:21:14;3.17;;;3.08;;
23179;SDS011;11758;45.756;11.432;2023-04-24T12:23:42;2.88;;;2.78;;
23179;SDS011;11758;45.756;11.432;2023-04-24T12:26:09;7.85;;;3.55;;
23179;SDS011;11758;45.756;11.432;2023-04-24T12:28:36;3.03;;;2.92;;
23179;SDS011;11758;45.756;11.432;2023-04-24T12:31:03;2.88;;;2.78;;
23179;SDS011;11758;45.756;11.432;2023-04-24T12:33:33;2.80;;;2.60;;
23179;SDS011;11758;45.756;11.432;2023-04-24T12:36:00;2.70;;;2.60;;
23179;SDS011;11758;45.756;11.432;2023-04-24T12:38:30;3.10;;;2.90;;
23179;SDS011;11758;45.756;11.432;2023-04-24T12:41:06;3.55;;;3.20;;
23179;SDS011;11758;45.756;11.432;2023-04-24T12:43:33;2.75;;;2.65;;
23179;SDS011;11758;45.756;11.432;2023-04-24T12:45:59;2.85;;;2.58;;
23179;SDS011;11758;45.756;11.432;2023-04-24T12:48:34;2.78;;;2.58;;
23179;SDS011;11758;45.756;11.432;2023-04-24T12:51:00;3.50;;;3.40;;
23179;SDS011;11758;45.756;11.432;2023-04-24T12:53:27;2.83;;;2.72;;
23179;SDS011;11758;45.756;11.432;2023-04-24T12:55:55;2.72;;;2.63;;
23179;SDS011;11758;45.756;11.432;2023-04-24T12:58:21;3.58;;;3.30;;
23179;SDS011;11758;45.756;11.432;2023-04-24T13:00:48;4.10;;;3.33;;
23179;SDS011;11758;45.756;11.432;2023-04-24T13:03:14;3.28;;;3.08;;
23179;SDS011;11758;45.756;11.432;2023-04-24T13:05:41;3.67;;;3.50;;
23179;SDS011;11758;45.756;11.432;2023-04-24T13:08:08;3.53;;;3.22;;
23179;SDS011;11758;45.756;11.432;2023-04-24T13:10:34;3.42;;;3.22;;
23179;SDS011;11758;45.756;11.432;2023-04-24T13:13:01;3.50;;;3.30;;
23179;SDS011;11758;45.756;11.432;2023-04-24T13:15:27;3.97;;;3.78;;
23179;SDS011;11758;45.756;11.432;2023-04-24T13:17:53;3.50;;;3.20;;
23179;SDS011;11758;45.756;11.432;2023-04-24T13:20:20;4.22;;;3.30;;
23179;SDS011;11758;45.756;11.432;2023-04-24T13:22:46;3.08;;;2.97;;
23179;SDS011;11758;45.756;11.432;2023-04-24T13:25:13;3.08;;;2.92;;
23179;SDS011;11758;45.756;11.432;2023-04-24T13:27:42;2.88;;;2.78;;
23179;SDS011;11758;45.756;11.432;2023-04-24T13:30:08;2.90;;;2.80;;
23179;SDS011;11758;45.756;11.432;2023-04-24T13:32:36;4.55;;;3.08;;
23179;SDS011;11758;45.756;11.432;2023-04-24T13:35:02;3.35;;;3.15;;
23179;SDS011;11758;45.756;11.432;2023-04-24T13:37:29;3.30;;;2.97;;
23179;SDS011;11758;45.756;11.432;2023-04-24T13:39:55;3.38;;;3.08;;
23179;SDS011;11758;45.756;11.432;2023-04-24T13:42:21;3.78;;;3.38;;
23179;SDS011;11758;45.756;11.432;2023-04-24T13:44:47;2.83;;;2.67;;
23179;SDS011;11758;45.756;11.432;2023-04-24T13:47:14;3.13;;;2.92;;
23179;SDS011;11758;45.756;11.432;2023-04-24T13:49:40;2.50;;;2.40;;
23179;SDS011;11758;45.756;11.432;2023-04-24T13:52:06;2.88;;;2.70;;
23179;SDS011;11758;45.756;11.432;2023-04-24T13:54:32;2.50;;;2.40;;
23179;SDS011;11758;45.756;11.432;2023-04-24T13:56:59;3.00;;;2.70;;
23179;SDS011;11758;45.756;11.432;2023-04-24T13:59:26;2.80;;;2.70;;
23179;SDS011;11758;45.756;11.432;2023-04-24T14:01:52;5.20;;;2.58;;
23179;SDS011;11758;45.756;11.432;2023-04-24T14:04:18;3.50;;;2.80;;
23179;SDS011;11758;45.756;11.432;2023-04-24T14:06:45;3.28;;;3.08;;
23179;SDS011;11758;45.756;11.432;2023-04-24T14:09:11;3.70;;;3.45;;
23179;SDS011;11758;45.756;11.432;2023-04-24T14:11:37;4.97;;;3.17;;
23179;SDS011;11758;45.756;11.432;2023-04-24T14:14:04;3.13;;;2.92;;
23179;SDS011;11758;45.756;11.432;2023-04-24T14:16:30;3.15;;;3.00;;
23179;SDS011;11758;45.756;11.432;2023-04-24T14:18:56;3.35;;;3.15;;
23179;SDS011;11758;45.756;11.432;2023-04-24T14:21:23;3.13;;;2.90;;
23179;SDS011;11758;45.756;11.432;2023-04-24T14:23:49;2.90;;;2.70;;
23179;SDS011;11758;45.756;11.432;2023-04-24T14:26:15;3.63;;;3.42;;
23179;SDS011;11758;45.756;11.432;2023-04-24T14:28:41;3.05;;;2.95;;
23179;SDS011;11758;45.756;11.432;2023-04-24T14:31:07;3.60;;;3.25;;
23179;SDS011;11758;45.756;11.432;2023-04-24T14:33:34;3.00;;;2.90;;